createdAt,value
2019-02-08T00:00:38.241Z,13.52
2019-02-08T00:03:10.201Z,13.37
2019-02-08T00:05:41.564Z,13.25
2019-02-08T00:08:12.738Z,13.34
2019-02-08T00:10:43.311Z,13.19
2019-02-08T00:13:14.366Z,13.51
2019-02-08T00:15:46.430Z,13.36
2019-02-08T00:18:17.470Z,13.74
2019-02-08T00:20:48.869Z,13.77
2019-02-08T00:23:26.980Z,13.77
2019-02-08T00:25:54.883Z,13.47
2019-02-08T00:28:27.158Z,13.50
2019-02-08T00:30:58.613Z,13.63
2019-02-08T00:33:30.419Z,13.82
2019-02-08T00:36:02.879Z,13.75
2019-02-08T00:38:33.936Z,13.74
2019-02-08T00:41:04.128Z,13.66
2019-02-08T00:43:34.818Z,13.88
2019-02-08T00:46:05.960Z,14.01
2019-02-08T00:48:37.237Z,13.98
2019-02-08T00:51:07.585Z,13.88
2019-02-08T00:53:39.291Z,14.00
2019-02-08T00:56:10.011Z,14.07
2019-02-08T00:58:41.002Z,14.06
2019-02-08T01:01:13.676Z,14.03
2019-02-08T01:03:45.959Z,14.01
2019-02-08T01:06:17.447Z,14.06
2019-02-08T01:08:48.521Z,13.94
2019-02-08T01:11:19.117Z,13.88
2019-02-08T01:13:49.712Z,13.81
2019-02-08T01:16:20.476Z,13.66
2019-02-08T01:18:52.696Z,13.77
2019-02-08T01:21:23.488Z,13.83
2019-02-08T01:23:56.484Z,13.71
2019-02-08T01:26:27.949Z,13.69
2019-02-08T01:28:58.996Z,13.67
2019-02-08T01:31:30.066Z,14.00
2019-02-08T01:34:01.110Z,13.83
2019-02-08T01:36:32.108Z,13.93
2019-02-08T01:39:07.470Z,13.40
2019-02-08T01:41:38.496Z,13.72
2019-02-08T01:44:09.633Z,13.72
2019-02-08T01:46:40.199Z,13.37
2019-02-08T01:49:10.724Z,13.92
2019-02-08T01:51:40.938Z,13.55
2019-02-08T01:54:12.486Z,13.54
2019-02-08T01:56:43.930Z,13.10
2019-02-08T01:59:14.631Z,13.47
2019-02-08T02:01:46.948Z,13.39
2019-02-08T02:04:17.615Z,13.63
2019-02-08T02:06:48.319Z,13.54
2019-02-08T02:09:21.789Z,13.57
2019-02-08T02:11:52.442Z,13.56
2019-02-08T02:14:23.411Z,13.69
2019-02-08T02:16:54.712Z,13.48
2019-02-08T02:19:25.760Z,13.27
2019-02-08T02:21:55.910Z,12.82
2019-02-08T02:24:27.722Z,12.73
2019-02-08T02:26:58.708Z,13.27
2019-02-08T02:29:29.473Z,13.00
2019-02-08T02:32:00.792Z,13.25
2019-02-08T02:34:31.926Z,13.31
2019-02-08T02:37:03.656Z,13.42
2019-02-08T02:39:35.979Z,13.21
2019-02-08T02:42:07.042Z,13.36
2019-02-08T02:44:37.311Z,13.37
2019-02-08T02:47:08.298Z,13.44
2019-02-08T02:49:38.591Z,13.42
2019-02-08T02:52:08.774Z,13.60
2019-02-08T02:54:39.792Z,13.42
2019-02-08T02:57:10.726Z,13.08
2019-02-08T02:59:41.434Z,13.70
2019-02-08T03:02:11.671Z,13.76
2019-02-08T03:04:44.131Z,13.68
2019-02-08T03:07:14.805Z,13.67
2019-02-08T03:09:48.967Z,13.82
2019-02-08T03:12:20.626Z,13.61
2019-02-08T03:14:51.236Z,13.63
2019-02-08T03:17:22.337Z,13.81
2019-02-08T03:19:53.398Z,13.79
2019-02-08T03:22:24.361Z,13.91
2019-02-08T03:24:57.012Z,13.58
2019-02-08T03:27:28.367Z,13.47
2019-02-08T03:29:59.292Z,13.37
2019-02-08T03:32:30.838Z,13.03
2019-02-08T03:35:02.489Z,13.34
2019-02-08T03:37:34.581Z,12.95
2019-02-08T03:40:09.651Z,13.32
2019-02-08T03:42:41.157Z,13.34
2019-02-08T03:45:13.107Z,13.02
2019-02-08T03:47:44.359Z,13.13
2019-02-08T03:50:17.342Z,13.20
2019-02-08T03:52:47.490Z,13.35
2019-02-08T03:55:20.140Z,13.30
2019-02-08T03:57:51.083Z,12.87
2019-02-08T04:00:28.467Z,12.75
2019-02-08T04:02:58.749Z,12.76
2019-02-08T04:05:29.230Z,13.34
2019-02-08T04:07:59.886Z,13.45
2019-02-08T04:10:32.173Z,13.47
2019-02-08T04:13:02.647Z,13.77
2019-02-08T04:15:35.982Z,13.56
2019-02-08T04:18:08.426Z,13.35
2019-02-08T04:20:39.131Z,13.29
2019-02-08T04:23:09.304Z,13.44
2019-02-08T04:25:41.702Z,13.32
2019-02-08T04:28:13.160Z,13.35
2019-02-08T04:30:44.470Z,13.12
2019-02-08T04:33:15.888Z,12.84
2019-02-08T04:35:47.157Z,12.78
2019-02-08T04:38:18.505Z,12.74
2019-02-08T04:40:51.161Z,12.75
2019-02-08T04:43:22.026Z,12.66
2019-02-08T04:45:53.494Z,13.01
2019-02-08T04:48:24.157Z,13.11
2019-02-08T04:50:54.896Z,12.79
2019-02-08T04:53:25.040Z,13.04
2019-02-08T04:55:55.234Z,12.89
2019-02-08T04:58:35.139Z,12.51
2019-02-08T05:00:59.477Z,12.89
2019-02-08T05:03:30.195Z,12.79
2019-02-08T05:06:00.399Z,12.81
2019-02-08T05:08:30.562Z,12.69
2019-02-08T05:11:01.477Z,12.48
2019-02-08T05:13:33.425Z,12.45
2019-02-08T05:16:04.718Z,12.47
2019-02-08T05:18:43.073Z,12.13
2019-02-08T05:21:13.832Z,12.66
2019-02-08T05:23:46.132Z,12.97
2019-02-08T05:26:18.601Z,12.34
2019-02-08T05:28:49.546Z,12.97
2019-02-08T05:31:20.699Z,13.15
2019-02-08T05:33:53.329Z,12.99
2019-02-08T05:36:24.349Z,13.09
2019-02-08T05:38:56.464Z,13.20
2019-02-08T05:41:27.019Z,13.24
2019-02-08T05:43:58.637Z,12.79
2019-02-08T05:46:31.065Z,12.85
2019-02-08T05:49:01.425Z,12.58
2019-02-08T05:51:33.933Z,12.75
2019-02-08T05:54:04.932Z,12.88
2019-02-08T05:56:36.047Z,12.70
2019-02-08T05:59:07.191Z,12.88
2019-02-08T06:01:39.975Z,12.93
2019-02-08T06:04:10.681Z,12.89
2019-02-08T06:06:43.861Z,12.98
2019-02-08T06:09:14.491Z,12.97
2019-02-08T06:11:45.517Z,12.66
2019-02-08T06:14:16.688Z,12.78
2019-02-08T06:16:48.465Z,13.20
2019-02-08T06:19:19.076Z,13.16
2019-02-08T06:21:49.748Z,13.41
2019-02-08T06:24:23.173Z,13.19
2019-02-08T06:26:55.376Z,12.99
2019-02-08T06:29:25.893Z,12.85
2019-02-08T06:31:58.136Z,13.23
2019-02-08T06:34:29.719Z,13.26
2019-02-08T06:37:00.712Z,13.10
2019-02-08T06:39:32.058Z,13.44
2019-02-08T06:42:04.177Z,13.71
2019-02-08T06:44:37.932Z,13.49
2019-02-08T06:47:10.485Z,13.68
2019-02-08T06:49:41.523Z,13.44
2019-02-08T06:52:13.361Z,13.46
2019-02-08T06:54:44.461Z,13.71
2019-02-08T06:57:25.093Z,13.20
2019-02-08T07:00:03.259Z,13.58
2019-02-08T07:02:52.822Z,13.28
2019-02-08T07:05:57.804Z,13.79
2019-02-08T07:08:41.793Z,13.94
2019-02-08T07:11:31.238Z,14.10
2019-02-08T07:14:18.304Z,13.86
2019-02-08T07:17:08.109Z,14.00
2019-02-08T07:20:01.015Z,13.87
2019-02-08T07:22:45.546Z,13.67
2019-02-08T07:25:27.749Z,13.74
2019-02-08T07:28:25.002Z,13.47
2019-02-08T07:31:14.938Z,13.46
2019-02-08T07:34:23.186Z,14.02
2019-02-08T07:37:05.083Z,14.01
2019-02-08T07:40:03.366Z,13.57
2019-02-08T07:42:56.566Z,13.78
2019-02-08T07:45:51.977Z,13.72
2019-02-08T07:48:46.508Z,13.57
2019-02-08T07:51:39.962Z,13.84
2019-02-08T07:54:48.363Z,13.52
2019-02-08T07:57:45.344Z,13.66
2019-02-08T08:00:36.286Z,13.48
2019-02-08T08:03:28.789Z,13.19
2019-02-08T08:06:23.431Z,13.45
2019-02-08T08:09:11.165Z,13.57
2019-02-08T08:11:54.258Z,13.61
2019-02-08T08:15:00.549Z,13.07
2019-02-08T08:17:50.422Z,13.23
2019-02-08T08:20:41.383Z,13.65
2019-02-08T08:23:36.268Z,13.16
2019-02-08T08:26:26.754Z,12.99
2019-02-08T08:29:26.457Z,13.25
2019-02-08T08:32:16.399Z,13.62
2019-02-08T08:35:27.682Z,13.27
2019-02-08T08:38:57.604Z,13.49
2019-02-08T08:42:19.741Z,13.34
2019-02-08T08:45:27.338Z,13.74
2019-02-08T08:48:35.188Z,13.66
2019-02-08T08:51:45.582Z,13.65
2019-02-08T08:55:19.668Z,13.02
2019-02-08T08:58:28.332Z,13.72
2019-02-08T09:01:38.691Z,13.46
2019-02-08T09:04:56.777Z,13.63
2019-02-08T09:08:22.519Z,13.88
2019-02-08T09:11:36.546Z,13.38
2019-02-08T09:15:04.148Z,13.81
2019-02-08T09:18:07.623Z,14.01
2019-02-08T09:21:27.639Z,13.29
2019-02-08T09:24:50.027Z,13.65
2019-02-08T09:27:57.740Z,13.72
2019-02-08T09:31:11.234Z,13.30
2019-02-08T09:34:40.402Z,13.58
2019-02-08T09:37:53.693Z,13.60
2019-02-08T09:41:00.280Z,13.53
2019-02-08T09:44:30.514Z,13.62
2019-02-08T09:48:01.482Z,13.54
2019-02-08T09:51:19.070Z,14.03
2019-02-08T09:54:39.424Z,13.78
2019-02-08T09:58:04.958Z,13.63
2019-02-08T10:01:41.080Z,13.88
2019-02-08T10:04:58.044Z,13.73
2019-02-08T10:08:05.554Z,14.09
2019-02-08T10:11:24.914Z,14.20
2019-02-08T10:15:01.726Z,14.06
2019-02-08T10:18:16.081Z,14.23
2019-02-08T10:21:34.448Z,13.69
2019-02-08T10:24:46.981Z,13.97
2019-02-08T10:27:45.543Z,14.04
2019-02-08T10:31:08.801Z,14.03
2019-02-08T10:34:16.819Z,14.26
2019-02-08T10:37:42.111Z,13.97
2019-02-08T10:40:59.146Z,13.93
2019-02-08T10:44:09.419Z,14.51
2019-02-08T10:47:28.383Z,14.50
2019-02-08T10:50:54.497Z,14.54
2019-02-08T10:54:02.282Z,14.42
2019-02-08T10:57:17.642Z,14.59
2019-02-08T11:00:40.742Z,14.52
2019-02-08T11:04:04.852Z,13.73
2019-02-08T11:07:14.687Z,14.07
2019-02-08T11:10:26.010Z,14.12
2019-02-08T11:13:51.125Z,13.63
2019-02-08T11:17:07.715Z,13.79
2019-02-08T11:19:40.072Z,13.95
2019-02-08T11:22:11.440Z,13.67
2019-02-08T11:24:42.461Z,14.21
2019-02-08T11:27:13.668Z,14.92
2019-02-08T11:29:46.063Z,14.70
2019-02-08T11:32:19.139Z,15.07
2019-02-08T11:34:51.847Z,15.00
2019-02-08T11:37:22.409Z,14.95
2019-02-08T11:39:52.690Z,15.15
2019-02-08T11:42:23.386Z,14.97
2019-02-08T11:44:53.608Z,14.41
2019-02-08T11:47:25.141Z,14.95
2019-02-08T11:49:58.425Z,14.70
2019-02-08T11:52:29.999Z,14.31
2019-02-08T11:55:01.382Z,13.85
2019-02-08T11:57:34.290Z,14.02
2019-02-08T12:00:07.817Z,14.52
2019-02-08T12:02:40.688Z,14.32
2019-02-08T12:05:13.278Z,13.91
2019-02-08T12:07:44.418Z,14.17
2019-02-08T12:10:14.791Z,14.13
2019-02-08T12:12:45.816Z,13.53
2019-02-08T12:15:17.503Z,13.29
2019-02-08T12:17:48.802Z,13.44
2019-02-08T12:20:19.575Z,13.15
2019-02-08T12:22:50.716Z,13.63
2019-02-08T12:25:21.005Z,13.86
2019-02-08T12:27:51.347Z,14.41
2019-02-08T12:30:25.561Z,14.09
2019-02-08T12:32:58.268Z,13.88
2019-02-08T12:35:30.323Z,13.74
2019-02-08T12:38:02.420Z,13.40
2019-02-08T12:40:34.512Z,13.33
2019-02-08T12:43:07.354Z,13.44
2019-02-08T12:45:38.872Z,13.54
2019-02-08T12:48:10.299Z,13.53
2019-02-08T12:50:41.429Z,13.55
2019-02-08T12:53:14.078Z,13.20
2019-02-08T12:55:46.721Z,13.07
2019-02-08T12:58:20.188Z,13.49
2019-02-08T13:00:51.985Z,13.51
2019-02-08T13:03:23.337Z,13.54
2019-02-08T13:05:55.281Z,13.65
2019-02-08T13:08:27.774Z,13.82
2019-02-08T13:10:58.835Z,13.24
2019-02-08T13:13:31.071Z,13.92
2019-02-08T13:16:03.089Z,13.66
2019-02-08T13:18:34.614Z,13.72
2019-02-08T13:21:05.592Z,13.89
2019-02-08T13:23:37.367Z,13.60
2019-02-08T13:26:08.290Z,14.06
2019-02-08T13:28:40.171Z,13.55
2019-02-08T13:31:10.506Z,13.58
2019-02-08T13:33:45.004Z,13.54
2019-02-08T13:36:16.583Z,13.49
2019-02-08T13:38:49.405Z,13.67
2019-02-08T13:41:20.038Z,13.77
2019-02-08T13:43:51.982Z,13.48
2019-02-08T13:46:22.461Z,13.68
2019-02-08T13:48:53.250Z,13.47
2019-02-08T13:51:23.859Z,13.95
2019-02-08T13:53:57.810Z,14.21
2019-02-08T13:56:28.347Z,14.53
2019-02-08T13:58:59.824Z,14.28
2019-02-08T14:01:31.143Z,13.68
2019-02-08T14:04:02.663Z,14.03
2019-02-08T14:06:33.885Z,14.02
2019-02-08T14:09:09.375Z,14.19
2019-02-08T14:11:40.377Z,13.84
2019-02-08T14:14:11.934Z,14.07
2019-02-08T14:16:43.307Z,14.37
2019-02-08T14:19:14.862Z,14.51
2019-02-08T14:21:45.985Z,14.42
2019-02-08T14:24:18.511Z,14.39
2019-02-08T14:26:50.974Z,14.06
2019-02-08T14:29:22.750Z,14.53
2019-02-08T14:31:53.109Z,14.38
2019-02-08T14:34:25.865Z,14.24
2019-02-08T14:36:57.150Z,14.18
2019-02-08T14:39:29.658Z,13.80
2019-02-08T14:42:01.484Z,13.81
2019-02-08T14:44:33.113Z,13.72
2019-02-08T14:47:04.040Z,13.88
2019-02-08T14:49:34.760Z,13.89
2019-02-08T14:52:05.412Z,13.35
2019-02-08T14:54:38.192Z,13.71
2019-02-08T14:57:16.490Z,14.15
2019-02-08T14:59:44.259Z,13.79
2019-02-08T15:02:15.671Z,13.71
2019-02-08T15:04:47.193Z,13.78
2019-02-08T15:07:18.266Z,13.61
2019-02-08T15:09:50.212Z,13.92
2019-02-08T15:12:20.451Z,13.58
2019-02-08T15:14:54.037Z,13.33
2019-02-08T15:17:24.693Z,13.58
2019-02-08T15:19:57.944Z,13.63
2019-02-08T15:22:29.615Z,13.56
2019-02-08T15:25:03.490Z,13.36
2019-02-08T15:27:34.828Z,13.46
2019-02-08T15:30:08.303Z,13.40
2019-02-08T15:32:39.685Z,13.43
2019-02-08T15:35:13.722Z,13.05
2019-02-08T15:37:46.074Z,13.14
2019-02-08T15:40:27.850Z,12.90
2019-02-08T15:43:03.138Z,13.12
2019-02-08T15:45:34.143Z,13.17
2019-02-08T15:48:05.762Z,13.45
2019-02-08T15:50:36.334Z,13.36
2019-02-08T15:53:07.374Z,13.57
2019-02-08T15:55:40.122Z,13.31
2019-02-08T15:58:10.792Z,14.00
2019-02-08T16:00:41.671Z,13.99
2019-02-08T16:03:13.343Z,13.87
2019-02-08T16:05:43.667Z,14.20
2019-02-08T16:08:14.697Z,14.01
2019-02-08T16:10:46.928Z,14.18
2019-02-08T16:13:17.611Z,13.81
2019-02-08T16:15:47.904Z,13.94
2019-02-08T16:18:19.749Z,13.99
2019-02-08T16:20:50.207Z,13.97
2019-02-08T16:23:21.789Z,13.71
2019-02-08T16:25:53.392Z,13.86
2019-02-08T16:28:24.013Z,13.37
2019-02-08T16:30:56.906Z,13.58
2019-02-08T16:33:27.079Z,13.90
2019-02-08T16:36:00.084Z,14.08
2019-02-08T16:38:30.356Z,14.28
2019-02-08T16:41:02.696Z,13.54
2019-02-08T16:43:33.443Z,13.80
2019-02-08T16:46:05.496Z,13.65
2019-02-08T16:48:36.114Z,13.85
2019-02-08T16:51:06.757Z,13.80
2019-02-08T16:53:36.956Z,13.77
2019-02-08T16:56:08.524Z,13.64
2019-02-08T16:58:39.521Z,13.39
2019-02-08T17:01:10.152Z,13.62
2019-02-08T17:03:42.173Z,14.00
2019-02-08T17:06:13.617Z,13.77
2019-02-08T17:08:44.337Z,14.13
2019-02-08T17:11:15.632Z,13.98
2019-02-08T17:13:45.896Z,13.89
2019-02-08T17:16:17.360Z,13.61
2019-02-08T17:18:49.914Z,13.75
2019-02-08T17:21:20.776Z,13.82
2019-02-08T17:23:50.991Z,13.42
2019-02-08T17:26:23.770Z,13.47
2019-02-08T17:28:54.413Z,13.52
2019-02-08T17:31:24.681Z,13.08
2019-02-08T17:33:54.851Z,12.87
2019-02-08T17:36:28.471Z,13.15
2019-02-08T17:39:00.230Z,13.37
2019-02-08T17:41:32.720Z,13.57
2019-02-08T17:44:05.170Z,13.95
2019-02-08T17:46:37.509Z,13.75
2019-02-08T17:49:08.396Z,14.08
2019-02-08T17:51:39.730Z,13.61
2019-02-08T17:54:11.561Z,13.93
2019-02-08T17:56:44.112Z,13.72
2019-02-08T17:59:16.200Z,13.78
2019-02-08T18:01:48.829Z,13.90
2019-02-08T18:04:20.330Z,14.23
2019-02-08T18:06:53.063Z,14.20
2019-02-08T18:09:25.949Z,13.70
2019-02-08T18:11:58.945Z,14.06
2019-02-08T18:14:30.975Z,14.35
2019-02-08T18:17:02.616Z,14.02
2019-02-08T18:19:33.457Z,13.72
2019-02-08T18:22:04.433Z,14.28
2019-02-08T18:24:36.031Z,14.10
2019-02-08T18:27:09.219Z,13.73
2019-02-08T18:29:43.314Z,13.95
2019-02-08T18:32:14.879Z,14.02
2019-02-08T18:34:46.534Z,13.46
2019-02-08T18:37:19.294Z,14.14
2019-02-08T18:39:50.770Z,14.20
2019-02-08T18:42:29.602Z,13.78
2019-02-08T18:44:59.806Z,14.23
2019-02-08T18:47:31.681Z,14.02
2019-02-08T18:50:01.860Z,13.82
2019-02-08T18:52:34.060Z,13.79
2019-02-08T18:55:05.734Z,13.66
2019-02-08T18:57:37.889Z,13.96
2019-02-08T19:00:13.621Z,14.05
2019-02-08T19:02:45.807Z,13.99
2019-02-08T19:05:19.306Z,14.08
2019-02-08T19:07:51.836Z,14.03
2019-02-08T19:10:23.387Z,14.31
2019-02-08T19:12:55.606Z,14.40
2019-02-08T19:15:26.344Z,14.16
2019-02-08T19:17:58.476Z,14.37
2019-02-08T19:20:29.780Z,13.70
2019-02-08T19:23:00.840Z,14.02
2019-02-08T19:25:35.768Z,13.67
2019-02-08T19:28:09.295Z,13.78
2019-02-08T19:30:42.284Z,13.79
2019-02-08T19:33:13.673Z,13.87
2019-02-08T19:35:47.972Z,14.24
2019-02-08T19:38:21.526Z,13.99
2019-02-08T19:40:54.310Z,14.15
2019-02-08T19:43:26.035Z,13.72
2019-02-08T19:45:57.390Z,14.00
2019-02-08T19:48:29.353Z,13.60
2019-02-08T19:51:00.591Z,13.96
2019-02-08T19:53:32.051Z,14.44
2019-02-08T19:56:03.518Z,14.60
2019-02-08T19:58:35.299Z,14.24
2019-02-08T20:01:08.251Z,14.19
2019-02-08T20:03:38.558Z,14.01
2019-02-08T20:06:08.935Z,14.51
2019-02-08T20:08:39.739Z,14.27
2019-02-08T20:11:11.251Z,14.01
2019-02-08T20:13:44.283Z,14.47
2019-02-08T20:16:15.713Z,13.98
2019-02-08T20:18:46.978Z,14.35
2019-02-08T20:21:18.275Z,14.09
2019-02-08T20:23:51.433Z,14.39
2019-02-08T20:26:22.675Z,14.50
2019-02-08T20:28:55.623Z,14.19
2019-02-08T20:31:27.619Z,14.28
2019-02-08T20:33:59.602Z,14.22
2019-02-08T20:36:31.023Z,14.13
2019-02-08T20:39:04.131Z,14.17
2019-02-08T20:41:36.922Z,14.15
2019-02-08T20:44:09.558Z,14.18
2019-02-08T20:46:41.029Z,14.20
2019-02-08T20:49:14.266Z,14.36
2019-02-08T20:51:44.795Z,14.26
2019-02-08T20:54:16.202Z,14.15
2019-02-08T20:56:46.911Z,14.29
2019-02-08T20:59:21.322Z,14.19
2019-02-08T21:01:53.451Z,14.27
2019-02-08T21:04:24.217Z,14.57
2019-02-08T21:06:54.702Z,14.39
2019-02-08T21:09:27.008Z,14.31
2019-02-08T21:11:58.345Z,14.47
2019-02-08T21:14:32.086Z,13.87
2019-02-08T21:17:03.164Z,13.81
2019-02-08T21:19:33.412Z,14.18
2019-02-08T21:22:06.131Z,14.14
2019-02-08T21:24:38.804Z,14.00
2019-02-08T21:27:11.283Z,13.40
2019-02-08T21:29:43.451Z,13.36
2019-02-08T21:32:14.084Z,13.80
2019-02-08T21:34:45.683Z,13.90
2019-02-08T21:37:16.851Z,13.32
2019-02-08T21:39:51.477Z,13.55
2019-02-08T21:42:21.943Z,13.66
2019-02-08T21:44:55.103Z,13.91
2019-02-08T21:47:25.965Z,13.90
2019-02-08T21:49:58.002Z,14.12
2019-02-08T21:52:30.855Z,13.76
2019-02-08T21:55:02.406Z,13.43
2019-02-08T21:57:33.675Z,13.48
2019-02-08T22:00:07.479Z,13.41
2019-02-08T22:02:38.812Z,13.45
2019-02-08T22:05:11.645Z,13.45
2019-02-08T22:07:42.468Z,13.58
2019-02-08T22:10:14.270Z,13.75
2019-02-08T22:12:45.811Z,13.49
2019-02-08T22:15:21.229Z,13.45
2019-02-08T22:17:53.258Z,13.48
2019-02-08T22:20:24.651Z,13.52
2019-02-08T22:22:56.243Z,13.74
2019-02-08T22:25:28.393Z,13.79
2019-02-08T22:27:59.212Z,14.24
2019-02-08T22:30:30.380Z,14.02
2019-02-08T22:33:01.211Z,14.03
2019-02-08T22:35:35.652Z,14.37
2019-02-08T22:38:08.758Z,14.17
2019-02-08T22:40:41.349Z,14.54
2019-02-08T22:43:12.859Z,14.17
2019-02-08T22:45:46.286Z,14.16
2019-02-08T22:48:16.550Z,14.48
2019-02-08T22:50:47.314Z,14.15
2019-02-08T22:53:17.891Z,14.10
2019-02-08T22:55:49.958Z,14.18
2019-02-08T22:58:20.507Z,14.19
2019-02-08T23:01:33.091Z,14.48
2019-02-08T23:04:05.351Z,14.24
2019-02-08T23:06:44.611Z,14.30
2019-02-08T23:09:24.342Z,13.98
2019-02-08T23:11:55.358Z,13.86
2019-02-08T23:14:28.499Z,13.73
2019-02-08T23:17:01.428Z,13.78
2019-02-08T23:19:33.899Z,13.39
2019-02-08T23:22:05.521Z,14.06
2019-02-08T23:24:37.724Z,13.74
2019-02-08T23:27:10.022Z,13.70
2019-02-08T23:29:41.409Z,14.01
2019-02-08T23:32:13.311Z,14.29
2019-02-08T23:34:44.386Z,14.08
2019-02-08T23:37:15.207Z,14.59
2019-02-08T23:39:46.175Z,14.33
2019-02-08T23:42:18.749Z,14.21
2019-02-08T23:44:50.178Z,13.98
2019-02-08T23:47:23.080Z,14.23
2019-02-08T23:49:54.544Z,13.66
2019-02-08T23:52:25.865Z,13.87
2019-02-08T23:54:56.888Z,13.66
2019-02-08T23:57:28.754Z,14.15
